Time;durP1;ratioP1;P1;durP2;ratioP2;P2;SDS_P1;SDS_P2;PMS_P1;PMS_P2;Temp;Humidity;BMP_temperature;BMP_pressure;BME280_temperature;BME280_humidity;BME280_pressure;Samples;Min_cycle;Max_cycle;Signal;HPM_P1;HPM_P2
2022/05/15 00:02:32;;;;;;;3.47;1.63;;;;;;;;;;8306310;28;20687;-59
2022/05/15 00:06:32;;;;;;;4.10;1.75;;;;;;;;;;8306950;28;20021;-58
2022/05/15 00:10:32;;;;;;;4.25;1.65;;;;;;;;;;8306185;28;20037;-58
2022/05/15 00:14:33;;;;;;;3.47;2.10;;;;;;;;;;8308253;28;20063;-59
2022/05/15 00:18:33;;;;;;;5.07;2.17;;;;;;;;;;8308065;28;20065;-57
2022/05/15 00:22:35;;;;;;;6.40;2.13;;;;;;;;;;8306308;28;20423;-58
2022/05/15 00:26:35;;;;;;;3.75;2.00;;;;;;;;;;8309459;28;20124;-57
2022/05/15 00:30:36;;;;;;;5.53;2.10;;;;;;;;;;8307763;28;20029;-57
2022/05/15 00:34:37;;;;;;;2.75;1.50;;;;;;;;;;8306502;28;20116;-59
2022/05/15 00:38:38;;;;;;;6.80;2.45;;;;;;;;;;8307512;28;20525;-57
2022/05/15 00:42:38;;;;;;;6.47;1.90;;;;;;;;;;8304600;28;20397;-57
2022/05/15 00:46:40;;;;;;;6.18;2.40;;;;;;;;;;8305479;28;20052;-59
2022/05/15 00:50:40;;;;;;;3.63;1.98;;;;;;;;;;8306487;28;20028;-57
2022/05/15 00:54:43;;;;;;;8.23;2.40;;;;;;;;;;8306521;28;20071;-57
2022/05/15 00:58:47;;;;;;;6.15;2.28;;;;;;;;;;8306710;28;20037;-57
2022/05/15 01:03:21;;;;;;;6.28;2.30;;;;;;;;;;8308065;28;20156;-57
2022/05/15 01:07:21;;;;;;;4.40;2.20;;;;;;;;;;8310345;28;20045;-58
2022/05/15 01:11:22;;;;;;;8.52;2.25;;;;;;;;;;8305641;28;20051;-57
2022/05/15 01:15:24;;;;;;;6.18;2.05;;;;;;;;;;8303789;28;20044;-57
2022/05/15 01:19:31;;;;;;;6.95;2.40;;;;;;;;;;8305487;28;20024;-57
2022/05/15 01:23:32;;;;;;;6.97;2.47;;;;;;;;;;8306073;28;20033;-57
2022/05/15 01:27:32;;;;;;;3.35;2.10;;;;;;;;;;8307691;28;20100;-57
2022/05/15 01:31:32;;;;;;;6.05;2.10;;;;;;;;;;8318128;28;20090;-59
2022/05/15 01:35:33;;;;;;;7.88;2.60;;;;;;;;;;8305990;28;20017;-57
2022/05/15 01:39:33;;;;;;;3.37;2.27;;;;;;;;;;8306349;28;20374;-57
2022/05/15 01:43:33;;;;;;;4.63;2.35;;;;;;;;;;8305305;28;20024;-57
2022/05/15 01:47:34;;;;;;;7.17;2.47;;;;;;;;;;8304755;28;20039;-57
2022/05/15 01:51:34;;;;;;;6.05;2.40;;;;;;;;;;8307295;28;20040;-57
2022/05/15 01:55:35;;;;;;;6.40;2.90;;;;;;;;;;8306442;28;20033;-57
2022/05/15 01:59:35;;;;;;;7.28;2.50;;;;;;;;;;8304818;28;20072;-57
2022/05/15 02:03:50;;;;;;;6.25;2.75;;;;;;;;;;8289690;28;20045;-57
2022/05/15 02:12:28;;;;;;;6.35;2.25;;;;;;;;;;8292834;28;20044;-57
2022/05/15 02:16:31;;;;;;;6.93;2.40;;;;;;;;;;8300905;28;20049;-57
2022/05/15 02:20:31;;;;;;;6.22;2.58;;;;;;;;;;8301797;28;20545;-57
2022/05/15 02:24:31;;;;;;;9.30;2.22;;;;;;;;;;8301509;28;20293;-57
2022/05/15 02:28:31;;;;;;;7.10;3.03;;;;;;;;;;8300568;28;20033;-57
2022/05/15 02:32:32;;;;;;;5.70;2.45;;;;;;;;;;8305003;28;20411;-58
2022/05/15 02:36:32;;;;;;;5.53;2.30;;;;;;;;;;8307924;28;20059;-57
2022/05/15 02:40:32;;;;;;;4.65;2.40;;;;;;;;;;8307492;28;20033;-57
2022/05/15 02:44:32;;;;;;;5.78;2.47;;;;;;;;;;8308260;28;20119;-59
2022/05/15 02:52:56;;;;;;;5.63;2.60;;;;;;;;;;8279075;28;20056;-57
2022/05/15 02:56:57;;;;;;;5.67;2.40;;;;;;;;;;8306339;28;20025;-57
2022/05/15 03:00:57;;;;;;;6.95;2.53;;;;;;;;;;8307464;28;20037;-59
2022/05/15 03:04:58;;;;;;;6.32;2.22;;;;;;;;;;8309325;28;20111;-57
2022/05/15 03:08:58;;;;;;;4.47;2.20;;;;;;;;;;8311571;28;20039;-57
2022/05/15 03:12:58;;;;;;;6.00;2.60;;;;;;;;;;8307284;28;20020;-57
2022/05/15 03:16:58;;;;;;;7.28;2.42;;;;;;;;;;8308387;28;20568;-59
2022/05/15 03:20:58;;;;;;;7.22;2.58;;;;;;;;;;8309037;28;20051;-57
2022/05/15 03:25:00;;;;;;;7.28;2.35;;;;;;;;;;8312850;28;20029;-57
2022/05/15 03:29:00;;;;;;;8.73;2.75;;;;;;;;;;8310795;28;20017;-57
2022/05/15 03:33:01;;;;;;;6.93;2.83;;;;;;;;;;8310382;28;20038;-57
2022/05/15 03:37:01;;;;;;;8.83;2.70;;;;;;;;;;8310230;28;20554;-57
2022/05/15 03:41:01;;;;;;;6.82;2.70;;;;;;;;;;8311263;28;20287;-59
2022/05/15 03:45:01;;;;;;;8.50;2.45;;;;;;;;;;8310408;28;20080;-57
2022/05/15 03:49:02;;;;;;;4.63;2.58;;;;;;;;;;8310324;28;20037;-57
2022/05/15 03:53:02;;;;;;;6.57;2.35;;;;;;;;;;8308814;28;20057;-57
2022/05/15 03:57:03;;;;;;;4.85;2.55;;;;;;;;;;8311661;28;20036;-58
2022/05/15 04:01:05;;;;;;;5.85;2.58;;;;;;;;;;8308951;28;20098;-57
2022/05/15 04:05:06;;;;;;;5.40;2.40;;;;;;;;;;8310000;28;20048;-57
2022/05/15 04:09:06;;;;;;;7.22;2.92;;;;;;;;;;8309852;28;21033;-57
2022/05/15 04:13:06;;;;;;;5.65;2.50;;;;;;;;;;8308225;28;20968;-57
2022/05/15 04:17:07;;;;;;;4.60;2.47;;;;;;;;;;8307608;28;20540;-56
2022/05/15 04:21:07;;;;;;;6.53;2.58;;;;;;;;;;8310598;28;20121;-57
2022/05/15 04:25:07;;;;;;;11.10;2.63;;;;;;;;;;8311210;28;20062;-58
2022/05/15 04:29:08;;;;;;;4.90;2.47;;;;;;;;;;8306918;28;20026;-56
2022/05/15 04:33:08;;;;;;;8.30;2.30;;;;;;;;;;8309594;28;20032;-57
2022/05/15 04:37:09;;;;;;;5.55;2.25;;;;;;;;;;8307269;28;20055;-57
2022/05/15 04:41:09;;;;;;;5.63;2.67;;;;;;;;;;8307762;28;20104;-57
2022/05/15 04:45:09;;;;;;;7.77;2.40;;;;;;;;;;8306867;28;20420;-56
2022/05/15 04:49:10;;;;;;;8.35;2.50;;;;;;;;;;8308119;28;20028;-58
2022/05/15 04:53:10;;;;;;;6.05;2.45;;;;;;;;;;8308774;28;20033;-60
2022/05/15 04:57:10;;;;;;;6.07;2.28;;;;;;;;;;8308983;28;20033;-59
2022/05/15 05:01:10;;;;;;;7.60;2.25;;;;;;;;;;8308763;28;20043;-58
2022/05/15 05:05:11;;;;;;;4.43;2.22;;;;;;;;;;8307261;28;20075;-58
2022/05/15 05:09:11;;;;;;;3.70;2.20;;;;;;;;;;8307315;28;20385;-58
2022/05/15 05:13:13;;;;;;;6.93;2.65;;;;;;;;;;8305796;28;20080;-57
2022/05/15 05:17:13;;;;;;;11.90;3.05;;;;;;;;;;8306906;28;20029;-58
2022/05/15 05:21:14;;;;;;;4.35;2.20;;;;;;;;;;8309284;28;20028;-58
2022/05/15 05:25:14;;;;;;;9.52;2.38;;;;;;;;;;8308578;28;20451;-57
2022/05/15 05:29:14;;;;;;;4.93;2.20;;;;;;;;;;8308179;28;20022;-59
2022/05/15 05:33:14;;;;;;;5.40;2.20;;;;;;;;;;8305930;28;20037;-59
2022/05/15 05:37:17;;;;;;;5.63;2.40;;;;;;;;;;8306965;28;20307;-59
2022/05/15 05:41:17;;;;;;;5.88;2.10;;;;;;;;;;8305364;28;20032;-58
2022/05/15 05:45:17;;;;;;;7.80;2.60;;;;;;;;;;8304935;28;20021;-59
2022/05/15 05:49:18;;;;;;;4.38;2.33;;;;;;;;;;8306438;28;20702;-59
2022/05/15 05:53:18;;;;;;;7.47;2.42;;;;;;;;;;8307521;28;20783;-58
2022/05/15 05:57:18;;;;;;;9.43;2.70;;;;;;;;;;8305612;28;20030;-59
2022/05/15 06:01:18;;;;;;;8.38;2.35;;;;;;;;;;8306962;28;20033;-59
2022/05/15 06:05:19;;;;;;;7.40;2.72;;;;;;;;;;8306481;28;20040;-59
2022/05/15 06:09:19;;;;;;;8.98;2.50;;;;;;;;;;8308068;28;20021;-59
2022/05/15 06:13:20;;;;;;;7.03;2.40;;;;;;;;;;8306515;28;20025;-58
2022/05/15 06:17:21;;;;;;;4.53;2.30;;;;;;;;;;8305659;28;20869;-59
2022/05/15 06:21:21;;;;;;;5.63;2.33;;;;;;;;;;8305633;28;20029;-59
2022/05/15 06:25:22;;;;;;;5.60;2.25;;;;;;;;;;8305700;28;20025;-59
2022/05/15 06:29:22;;;;;;;5.07;2.35;;;;;;;;;;8305783;28;20047;-59
2022/05/15 06:33:22;;;;;;;4.70;2.05;;;;;;;;;;8303153;28;20041;-59
2022/05/15 06:37:22;;;;;;;5.53;2.13;;;;;;;;;;8302472;28;20025;-60
2022/05/15 06:41:23;;;;;;;8.80;2.88;;;;;;;;;;8303618;28;20029;-60
2022/05/15 06:45:24;;;;;;;7.00;2.70;;;;;;;;;;8303358;28;20041;-60
2022/05/15 06:49:24;;;;;;;4.63;2.33;;;;;;;;;;8305218;28;20904;-59
2022/05/15 06:53:24;;;;;;;5.50;2.50;;;;;;;;;;8303639;28;20033;-59
2022/05/15 06:57:31;;;;;;;7.40;2.60;;;;;;;;;;8307747;28;20033;-59
2022/05/15 07:01:31;;;;;;;4.80;2.00;;;;;;;;;;8310773;28;20448;-59
2022/05/15 07:05:32;;;;;;;6.60;2.60;;;;;;;;;;8309236;28;20050;-60
2022/05/15 07:09:32;;;;;;;5.00;2.50;;;;;;;;;;8310263;28;20056;-59
2022/05/15 07:13:33;;;;;;;6.03;2.20;;;;;;;;;;8309413;28;20622;-59
2022/05/15 07:17:33;;;;;;;4.32;2.40;;;;;;;;;;8309773;28;20045;-59
2022/05/15 07:21:33;;;;;;;4.15;2.38;;;;;;;;;;8308378;28;20941;-59
2022/05/15 07:25:33;;;;;;;5.43;2.40;;;;;;;;;;8309469;28;20984;-59
2022/05/15 07:29:36;;;;;;;6.15;2.40;;;;;;;;;;8309982;28;20029;-59
2022/05/15 07:33:36;;;;;;;;;;;;;;;;;;8308670;28;20503;-59
2022/05/15 07:37:36;;;;;;;4.18;2.33;;;;;;;;;;8309184;28;20005;-59
2022/05/15 07:41:37;;;;;;;4.63;2.28;;;;;;;;;;8306673;28;20078;-59
2022/05/15 07:45:37;;;;;;;6.87;2.30;;;;;;;;;;8309585;28;20037;-59
2022/05/15 07:49:37;;;;;;;4.57;2.47;;;;;;;;;;8309143;28;20113;-59
2022/05/15 07:53:38;;;;;;;7.43;2.20;;;;;;;;;;8307732;28;20095;-60
2022/05/15 07:57:38;;;;;;;8.60;2.35;;;;;;;;;;8307250;28;20034;-59
2022/05/15 08:01:39;;;;;;;6.40;1.98;;;;;;;;;;8306733;28;20391;-61
2022/05/15 08:09:58;;;;;;;4.00;1.90;;;;;;;;;;8309351;28;20036;-59
2022/05/15 08:14:02;;;;;;;3.47;2.00;;;;;;;;;;8307104;28;20762;-59
2022/05/15 08:26:41;;;;;;;4.30;1.80;;;;;;;;;;8313640;28;20035;-60
2022/05/15 08:30:41;;;;;;;5.43;2.15;;;;;;;;;;8301417;28;20864;-59
2022/05/15 08:34:42;;;;;;;5.33;2.27;;;;;;;;;;8307026;28;20118;-59
2022/05/15 08:38:43;;;;;;;5.80;2.10;;;;;;;;;;8305642;28;20029;-59
2022/05/15 08:42:54;;;;;;;5.87;2.00;;;;;;;;;;8306839;28;20059;-60
2022/05/15 08:47:00;;;;;;;4.78;1.85;;;;;;;;;;8304060;28;20037;-59
2022/05/15 08:51:01;;;;;;;7.25;2.20;;;;;;;;;;8306012;28;20382;-60
2022/05/15 08:55:06;;;;;;;5.18;1.90;;;;;;;;;;8306042;28;20501;-59
2022/05/15 08:59:12;;;;;;;6.65;1.90;;;;;;;;;;8304854;28;20044;-59
2022/05/15 09:03:14;;;;;;;3.80;1.70;;;;;;;;;;8305961;28;20076;-59
2022/05/15 09:07:20;;;;;;;4.80;1.60;;;;;;;;;;8305143;28;20582;-59
2022/05/15 09:11:26;;;;;;;4.53;1.77;;;;;;;;;;8304363;28;20348;-59
2022/05/15 09:15:29;;;;;;;4.70;1.80;;;;;;;;;;8305472;28;20048;-59
2022/05/15 09:19:30;;;;;;;3.13;1.77;;;;;;;;;;8305879;28;20048;-59
2022/05/15 09:23:35;;;;;;;5.27;2.27;;;;;;;;;;8305937;28;20029;-59
2022/05/15 09:27:35;;;;;;;4.32;1.70;;;;;;;;;;8305378;28;20025;-59
2022/05/15 09:31:35;;;;;;;5.13;2.00;;;;;;;;;;8303695;28;20048;-59
2022/05/15 09:35:37;;;;;;;4.25;1.83;;;;;;;;;;8305971;28;20037;-59
2022/05/15 09:39:42;;;;;;;3.65;1.60;;;;;;;;;;8303173;28;20132;-59
2022/05/15 09:43:53;;;;;;;3.50;1.77;;;;;;;;;;8305467;28;20029;-59
2022/05/15 09:47:53;;;;;;;6.15;1.88;;;;;;;;;;8304550;28;20145;-59
2022/05/15 09:51:57;;;;;;;4.70;1.80;;;;;;;;;;8304691;28;20060;-59
2022/05/15 09:55:59;;;;;;;6.00;1.95;;;;;;;;;;8306810;28;20025;-59
2022/05/15 10:00:01;;;;;;;4.20;1.70;;;;;;;;;;8301490;28;20555;-59
2022/05/15 10:04:03;;;;;;;3.35;1.50;;;;;;;;;;8305146;28;20419;-59
2022/05/15 10:08:09;;;;;;;7.20;1.80;;;;;;;;;;8304289;28;20018;-59
2022/05/15 10:12:18;;;;;;;3.45;1.58;;;;;;;;;;8306380;28;20025;-59
2022/05/15 10:16:23;;;;;;;4.60;1.65;;;;;;;;;;8303612;28;20587;-59
2022/05/15 10:20:25;;;;;;;5.18;1.40;;;;;;;;;;8303336;28;20754;-59
2022/05/15 10:24:35;;;;;;;4.00;1.60;;;;;;;;;;8305498;28;20025;-59
2022/05/15 10:28:47;;;;;;;3.10;1.60;;;;;;;;;;8305285;28;20024;-59
2022/05/15 10:32:50;;;;;;;3.00;1.60;;;;;;;;;;8312409;28;20072;-60
2022/05/15 10:36:50;;;;;;;6.05;1.50;;;;;;;;;;8309552;28;20078;-59
2022/05/15 10:40:56;;;;;;;2.97;1.50;;;;;;;;;;8310893;28;20033;-59
2022/05/15 10:45:04;;;;;;;4.60;1.50;;;;;;;;;;8309543;28;20986;-59
2022/05/15 10:49:16;;;;;;;6.50;1.48;;;;;;;;;;8309380;28;20030;-59
2022/05/15 10:58:20;;;;;;;7.07;1.50;;;;;;;;;;8310840;28;20036;-59
2022/05/15 11:02:20;;;;;;;8.13;1.50;;;;;;;;;;8311555;28;20041;-59
2022/05/15 11:06:26;;;;;;;3.47;1.60;;;;;;;;;;8310584;28;20021;-59
2022/05/15 11:10:33;;;;;;;2.78;1.42;;;;;;;;;;8310638;28;20026;-60
2022/05/15 11:14:39;;;;;;;4.60;1.60;;;;;;;;;;8310504;28;20033;-59
2022/05/15 11:18:42;;;;;;;6.00;1.60;;;;;;;;;;8309376;28;20050;-63
2022/05/15 11:22:47;;;;;;;4.95;1.50;;;;;;;;;;8309442;28;20595;-59
2022/05/15 11:26:50;;;;;;;5.03;1.50;;;;;;;;;;8308621;28;20022;-59
2022/05/15 11:30:59;;;;;;;2.90;1.40;;;;;;;;;;8307540;28;20048;-59
2022/05/15 11:34:59;;;;;;;4.38;1.52;;;;;;;;;;8307750;28;20026;-59
2022/05/15 11:39:05;;;;;;;3.08;1.50;;;;;;;;;;8306862;28;20033;-59
2022/05/15 11:43:24;;;;;;;1.98;1.30;;;;;;;;;;8305900;28;20032;-59
2022/05/15 11:47:26;;;;;;;3.17;1.58;;;;;;;;;;8309815;28;20415;-59
2022/05/15 11:51:29;;;;;;;3.47;1.42;;;;;;;;;;8309705;28;20032;-59
2022/05/15 11:55:34;;;;;;;2.13;1.33;;;;;;;;;;8309789;28;20450;-60
2022/05/15 11:59:55;;;;;;;3.97;1.50;;;;;;;;;;8310721;28;20759;-59
2022/05/15 12:03:59;;;;;;;3.53;1.60;;;;;;;;;;8309151;28;20034;-60
2022/05/15 12:08:07;;;;;;;2.63;1.45;;;;;;;;;;8309271;28;20022;-59
2022/05/15 12:12:33;;;;;;;5.65;2.00;;;;;;;;;;8310706;28;20029;-60
2022/05/15 12:16:50;;;;;;;3.35;1.70;;;;;;;;;;8307191;28;20084;-60
2022/05/15 12:20:51;;;;;;;3.10;1.50;;;;;;;;;;8307999;28;20025;-61
2022/05/15 12:24:51;;;;;;;4.15;1.50;;;;;;;;;;8308897;28;20482;-59
2022/05/15 12:29:01;;;;;;;4.30;1.52;;;;;;;;;;8308078;28;20056;-59
2022/05/15 12:33:03;;;;;;;3.10;1.77;;;;;;;;;;8306155;28;20057;-60
2022/05/15 12:37:08;;;;;;;4.65;1.80;;;;;;;;;;8308281;28;20029;-61
2022/05/15 12:41:12;;;;;;;6.32;1.88;;;;;;;;;;8305808;28;20830;-60
2022/05/15 12:45:15;;;;;;;4.65;1.70;;;;;;;;;;8307288;28;20136;-60
2022/05/15 12:49:15;;;;;;;;;;;;;;;;;;8306132;28;20017;-60
2022/05/15 12:53:24;;;;;;;5.40;1.80;;;;;;;;;;8306429;28;19920;-60
2022/05/15 12:57:25;;;;;;;3.88;1.70;;;;;;;;;;8306890;28;20115;-60
2022/05/15 13:01:30;;;;;;;3.63;1.70;;;;;;;;;;8306198;28;20624;-60
2022/05/15 13:05:32;;;;;;;4.32;1.70;;;;;;;;;;8305955;28;20050;-60
2022/05/15 13:09:32;;;;;;;6.25;1.75;;;;;;;;;;8308316;28;20122;-61
2022/05/15 13:13:34;;;;;;;2.92;1.50;;;;;;;;;;8304651;28;20685;-60
2022/05/15 13:17:36;;;;;;;4.00;1.70;;;;;;;;;;8305893;28;20715;-60
2022/05/15 13:21:38;;;;;;;6.35;1.70;;;;;;;;;;8306231;28;20560;-60
2022/05/15 13:25:39;;;;;;;;;;;;;;;;;;8306670;28;20036;-60
2022/05/15 13:29:41;;;;;;;2.37;1.67;;;;;;;;;;8306297;28;19964;-61
2022/05/15 13:33:42;;;;;;;5.70;1.80;;;;;;;;;;8305142;28;20048;-61
2022/05/15 13:37:44;;;;;;;4.05;1.83;;;;;;;;;;8305834;28;20070;-60
2022/05/15 13:46:17;;;;;;;3.83;1.80;;;;;;;;;;8305420;28;20076;-61
2022/05/15 13:50:49;;;;;;;3.45;1.67;;;;;;;;;;8305687;28;20524;-62
2022/05/15 13:54:50;;;;;;;4.55;1.58;;;;;;;;;;8287991;28;20045;-60
2022/05/15 13:58:51;;;;;;;4.45;1.83;;;;;;;;;;8304394;28;20805;-59
2022/05/15 14:03:15;;;;;;;9.07;1.60;;;;;;;;;;8306504;28;20092;-60
2022/05/15 14:07:35;;;;;;;2.70;1.48;;;;;;;;;;8307971;28;20033;-60
2022/05/15 14:11:51;;;;;;;2.63;1.58;;;;;;;;;;8312647;28;20036;-61
2022/05/15 14:15:52;;;;;;;3.17;1.50;;;;;;;;;;8311095;28;20532;-61
2022/05/15 14:20:00;;;;;;;3.00;1.45;;;;;;;;;;8311954;28;20185;-61
2022/05/15 14:24:00;;;;;;;6.10;1.48;;;;;;;;;;8313613;28;20029;-60
2022/05/15 14:28:02;;;;;;;2.65;1.60;;;;;;;;;;8311548;28;20091;-58
2022/05/15 14:32:03;;;;;;;3.22;1.30;;;;;;;;;;8310691;28;20040;-60
2022/05/15 14:36:03;;;;;;;2.05;1.25;;;;;;;;;;8311810;28;20032;-58
2022/05/15 14:40:04;;;;;;;4.40;1.50;;;;;;;;;;8307846;28;20025;-59
2022/05/15 14:44:04;;;;;;;3.17;1.50;;;;;;;;;;8309327;28;20088;-59
2022/05/15 14:48:07;;;;;;;4.53;1.73;;;;;;;;;;8310200;28;20045;-58
2022/05/15 14:52:07;;;;;;;;;;;;;;;;;;8311236;28;20029;-58
2022/05/15 14:56:08;;;;;;;2.58;1.48;;;;;;;;;;8311151;28;19920;-59
2022/05/15 15:00:09;;;;;;;3.70;1.55;;;;;;;;;;8308545;28;20829;-58
2022/05/15 15:04:10;;;;;;;2.28;1.42;;;;;;;;;;8309906;28;20073;-58
2022/05/15 15:08:31;;;;;;;3.85;1.70;;;;;;;;;;8310372;28;20136;-58
2022/05/15 15:12:32;;;;;;;2.47;1.33;;;;;;;;;;8310522;28;20095;-58
2022/05/15 15:16:37;;;;;;;3.92;1.60;;;;;;;;;;8308556;28;20036;-59
2022/05/15 15:20:39;;;;;;;2.85;1.38;;;;;;;;;;8311221;28;20627;-60
2022/05/15 15:24:39;;;;;;;2.58;1.50;;;;;;;;;;8309859;28;20064;-58
2022/05/15 15:28:39;;;;;;;2.22;1.58;;;;;;;;;;8310742;28;20033;-58
2022/05/15 15:32:39;;;;;;;5.13;1.60;;;;;;;;;;8310931;28;20061;-58
2022/05/15 15:36:41;;;;;;;4.77;1.40;;;;;;;;;;8309619;28;20039;-58
2022/05/15 15:40:45;;;;;;;2.20;1.40;;;;;;;;;;8307754;28;20035;-59
2022/05/15 15:44:46;;;;;;;4.25;1.45;;;;;;;;;;8309554;28;20095;-58
2022/05/15 15:48:47;;;;;;;2.03;1.33;;;;;;;;;;8309731;28;20037;-59
2022/05/15 15:52:47;;;;;;;3.33;1.50;;;;;;;;;;8309214;28;20158;-59
2022/05/15 15:56:48;;;;;;;5.40;1.58;;;;;;;;;;8307546;28;20021;-59
2022/05/15 16:00:48;;;;;;;3.63;1.50;;;;;;;;;;8309120;28;20136;-58
2022/05/15 16:04:48;;;;;;;2.50;1.50;;;;;;;;;;8307680;28;20294;-58
2022/05/15 16:08:49;;;;;;;4.07;1.57;;;;;;;;;;8308472;28;20037;-59
2022/05/15 16:12:49;;;;;;;4.22;1.63;;;;;;;;;;8304995;28;20065;-59
2022/05/15 16:16:50;;;;;;;6.57;1.73;;;;;;;;;;8306548;28;20135;-59
2022/05/15 16:20:55;;;;;;;2.38;1.40;;;;;;;;;;8308003;28;20149;-58
2022/05/15 16:24:57;;;;;;;3.20;1.60;;;;;;;;;;8305583;28;20021;-60
2022/05/15 16:28:58;;;;;;;2.50;1.38;;;;;;;;;;8308281;28;20024;-58
2022/05/15 16:32:59;;;;;;;2.72;1.48;;;;;;;;;;8305143;28;20051;-58
2022/05/15 16:37:00;;;;;;;5.63;1.40;;;;;;;;;;8305536;28;20041;-58
2022/05/15 16:41:00;;;;;;;9.45;1.70;;;;;;;;;;8303555;28;20040;-59
2022/05/15 16:45:02;;;;;;;4.72;1.60;;;;;;;;;;8305810;28;20135;-58
2022/05/15 16:49:02;;;;;;;4.33;1.60;;;;;;;;;;8306723;28;20118;-58
2022/05/15 16:53:03;;;;;;;2.63;1.50;;;;;;;;;;8305460;28;20122;-57
2022/05/15 16:57:03;;;;;;;4.22;1.75;;;;;;;;;;8306819;28;20035;-59
2022/05/15 17:01:03;;;;;;;3.20;1.30;;;;;;;;;;8305007;28;20037;-58
2022/05/15 17:05:04;;;;;;;2.43;1.70;;;;;;;;;;8306761;28;20843;-57
2022/05/15 17:09:04;;;;;;;2.50;1.30;;;;;;;;;;8305583;28;20258;-58
2022/05/15 17:13:05;;;;;;;3.25;1.70;;;;;;;;;;8307219;28;20118;-57
2022/05/15 17:17:05;;;;;;;2.83;1.52;;;;;;;;;;8307988;28;20036;-59
2022/05/15 17:21:06;;;;;;;3.63;1.55;;;;;;;;;;8308366;28;20021;-58
2022/05/15 17:25:07;;;;;;;2.42;1.23;;;;;;;;;;8306836;28;20029;-57
2022/05/15 17:37:46;;;;;;;3.05;1.48;;;;;;;;;;8306868;28;20044;-58
2022/05/15 17:41:48;;;;;;;5.85;1.70;;;;;;;;;;8305848;28;20060;-59
2022/05/15 17:45:49;;;;;;;2.03;1.30;;;;;;;;;;8306931;28;20081;-58
2022/05/15 17:49:49;;;;;;;3.97;1.40;;;;;;;;;;8304084;28;20036;-58
2022/05/15 17:53:50;;;;;;;3.67;1.38;;;;;;;;;;8306458;28;20021;-58
2022/05/15 17:57:51;;;;;;;1.40;1.30;;;;;;;;;;8304914;28;21057;-58
2022/05/15 18:01:51;;;;;;;4.15;1.48;;;;;;;;;;8304336;28;20037;-60
2022/05/15 18:05:52;;;;;;;3.77;1.30;;;;;;;;;;8306166;28;20029;-56
2022/05/15 18:09:52;;;;;;;2.20;1.42;;;;;;;;;;8306820;28;20280;-58
2022/05/15 18:13:52;;;;;;;3.50;1.30;;;;;;;;;;8305298;28;20119;-60
2022/05/15 18:17:52;;;;;;;2.83;1.37;;;;;;;;;;8306259;28;20486;-59
2022/05/15 18:21:53;;;;;;;2.70;1.35;;;;;;;;;;8305179;28;20481;-58
2022/05/15 18:25:53;;;;;;;2.50;1.23;;;;;;;;;;8305872;28;20021;-57
2022/05/15 18:29:54;;;;;;;2.60;1.40;;;;;;;;;;8304885;28;20023;-57
2022/05/15 18:33:54;;;;;;;3.72;1.50;;;;;;;;;;8302523;28;20132;-58
2022/05/15 18:37:55;;;;;;;1.75;1.10;;;;;;;;;;8305993;28;20744;-58
2022/05/15 18:42:01;;;;;;;3.17;1.58;;;;;;;;;;8302797;28;20053;-57
2022/05/15 18:46:01;;;;;;;6.13;1.40;;;;;;;;;;8305260;28;20993;-57
2022/05/15 18:58:39;;;;;;;4.53;1.45;;;;;;;;;;8311913;28;20067;-58
2022/05/15 19:02:40;;;;;;;1.73;1.33;;;;;;;;;;8307675;28;20041;-58
2022/05/15 19:06:40;;;;;;;3.53;1.40;;;;;;;;;;8308148;28;20040;-58
2022/05/15 19:10:42;;;;;;;3.73;1.30;;;;;;;;;;8307035;28;20119;-58
2022/05/15 19:14:42;;;;;;;4.47;1.30;;;;;;;;;;8306008;28;20104;-60
2022/05/15 19:18:42;;;;;;;2.25;1.30;;;;;;;;;;8308074;28;20885;-58
2022/05/15 19:22:43;;;;;;;3.83;1.20;;;;;;;;;;8306025;28;20025;-58
2022/05/15 19:26:45;;;;;;;8.02;1.67;;;;;;;;;;8306957;28;20087;-58
2022/05/15 19:30:45;;;;;;;3.28;1.60;;;;;;;;;;8309434;28;20025;-58
2022/05/15 19:34:46;;;;;;;2.92;1.50;;;;;;;;;;8308604;28;20849;-58
2022/05/15 19:38:47;;;;;;;2.42;1.65;;;;;;;;;;8309855;28;20018;-58
2022/05/15 19:42:47;;;;;;;4.82;1.45;;;;;;;;;;8308770;28;20025;-57
2022/05/15 19:46:47;;;;;;;3.75;1.65;;;;;;;;;;8307258;28;20029;-58
2022/05/15 19:50:48;;;;;;;2.85;1.50;;;;;;;;;;8306508;28;20026;-58
2022/05/15 19:54:49;;;;;;;6.80;1.67;;;;;;;;;;8307770;28;20017;-58
2022/05/15 19:58:49;;;;;;;4.25;1.63;;;;;;;;;;8306475;28;20025;-57
2022/05/15 20:02:50;;;;;;;2.23;1.40;;;;;;;;;;8307236;28;20122;-58
2022/05/15 20:15:30;;;;;;;3.72;1.42;;;;;;;;;;8306122;28;20509;-58
2022/05/15 20:19:31;;;;;;;3.33;1.33;;;;;;;;;;8307355;28;20054;-57
2022/05/15 20:23:31;;;;;;;3.63;1.50;;;;;;;;;;8307619;28;20036;-57
2022/05/15 20:27:31;;;;;;;4.07;1.70;;;;;;;;;;8305779;28;20024;-58
2022/05/15 20:31:37;;;;;;;5.00;1.50;;;;;;;;;;8306990;28;20280;-57
2022/05/15 20:35:38;;;;;;;4.78;1.48;;;;;;;;;;8307075;28;20040;-57
2022/05/15 20:39:39;;;;;;;3.50;1.58;;;;;;;;;;8307516;28;20056;-57
2022/05/15 20:43:39;;;;;;;4.15;1.35;;;;;;;;;;8305965;28;20075;-58
2022/05/15 20:47:39;;;;;;;5.47;1.55;;;;;;;;;;8305705;28;20677;-58
2022/05/15 20:51:40;;;;;;;3.28;1.40;;;;;;;;;;8305342;28;20788;-58
2022/05/15 20:55:40;;;;;;;6.00;1.90;;;;;;;;;;8307491;28;20033;-57
2022/05/15 20:59:42;;;;;;;3.05;1.50;;;;;;;;;;8305124;28;20095;-57
2022/05/15 21:03:42;;;;;;;3.05;1.40;;;;;;;;;;8305187;28;20145;-58
2022/05/15 21:07:43;;;;;;;4.60;1.67;;;;;;;;;;8304832;28;20021;-60
2022/05/15 21:11:43;;;;;;;4.53;1.52;;;;;;;;;;8306246;28;20155;-58
2022/05/15 21:15:43;;;;;;;5.00;1.50;;;;;;;;;;8305305;28;20039;-58
2022/05/15 21:19:44;;;;;;;4.13;1.67;;;;;;;;;;8306750;28;20038;-58
2022/05/15 21:23:44;;;;;;;4.55;1.73;;;;;;;;;;8307040;28;20071;-57
2022/05/15 21:27:44;;;;;;;2.90;1.40;;;;;;;;;;8305222;28;20596;-57
2022/05/15 21:31:44;;;;;;;2.42;1.35;;;;;;;;;;8304987;28;21086;-59
2022/05/15 21:35:45;;;;;;;2.77;1.40;;;;;;;;;;8307960;28;20025;-58
2022/05/15 21:44:05;;;;;;;2.35;1.50;;;;;;;;;;8308678;28;20099;-58
2022/05/15 21:48:06;;;;;;;3.72;1.60;;;;;;;;;;8308147;28;20036;-57
2022/05/15 21:52:06;;;;;;;3.92;1.67;;;;;;;;;;8306182;28;20420;-58
2022/05/15 21:56:06;;;;;;;3.72;1.60;;;;;;;;;;8307667;28;20094;-57
2022/05/15 22:00:25;;;;;;;2.88;1.40;;;;;;;;;;8308589;28;20836;-59
2022/05/15 22:04:25;;;;;;;4.68;1.73;;;;;;;;;;8305839;28;20063;-58
2022/05/15 22:08:26;;;;;;;4.65;1.40;;;;;;;;;;8306983;28;21211;-58
2022/05/15 22:12:26;;;;;;;1.75;1.27;;;;;;;;;;8304975;28;20493;-59
2022/05/15 22:16:26;;;;;;;4.07;1.70;;;;;;;;;;8304730;28;20037;-57
2022/05/15 22:20:27;;;;;;;3.73;1.53;;;;;;;;;;8306469;28;20044;-59
2022/05/15 22:24:27;;;;;;;6.05;1.35;;;;;;;;;;8307169;28;20053;-57
2022/05/15 22:28:27;;;;;;;2.25;1.42;;;;;;;;;;8312476;28;20029;-57
2022/05/15 22:32:28;;;;;;;2.95;1.48;;;;;;;;;;8312450;28;20030;-57
2022/05/15 22:36:28;;;;;;;9.40;1.63;;;;;;;;;;8313782;28;20151;-57
2022/05/15 22:40:28;;;;;;;5.25;1.60;;;;;;;;;;8310807;28;20897;-59
2022/05/15 22:44:28;;;;;;;2.75;1.60;;;;;;;;;;8313290;28;20033;-56
2022/05/15 22:48:29;;;;;;;2.22;1.50;;;;;;;;;;8312241;28;20810;-57
2022/05/15 22:52:29;;;;;;;2.53;1.48;;;;;;;;;;8309238;28;20036;-57
2022/05/15 22:56:29;;;;;;;4.68;1.50;;;;;;;;;;8308504;28;20048;-57
2022/05/15 23:00:30;;;;;;;6.35;1.70;;;;;;;;;;8311724;28;20179;-57
2022/05/15 23:08:50;;;;;;;5.13;1.63;;;;;;;;;;8311929;28;20117;-57
2022/05/15 23:12:50;;;;;;;3.28;1.50;;;;;;;;;;8310134;28;20029;-57
2022/05/15 23:16:50;;;;;;;2.47;1.60;;;;;;;;;;8312608;28;20057;-56
2022/05/15 23:20:50;;;;;;;4.13;1.67;;;;;;;;;;8310693;28;20033;-57
2022/05/15 23:24:50;;;;;;;1.77;1.47;;;;;;;;;;8312024;28;20044;-57
2022/05/15 23:28:51;;;;;;;3.65;1.50;;;;;;;;;;8311377;28;20280;-57
2022/05/15 23:32:53;;;;;;;4.07;1.73;;;;;;;;;;8310597;28;20163;-59
2022/05/15 23:36:53;;;;;;;2.90;1.40;;;;;;;;;;8310136;28;20115;-63
2022/05/15 23:40:53;;;;;;;4.28;1.40;;;;;;;;;;8309570;28;20037;-57
2022/05/15 23:44:53;;;;;;;3.45;1.15;;;;;;;;;;8311163;28;20034;-57
2022/05/15 23:48:53;;;;;;;2.35;1.38;;;;;;;;;;8309730;28;20057;-57
2022/05/15 23:52:54;;;;;;;4.53;1.35;;;;;;;;;;8309876;28;20310;-57
2022/05/15 23:56:54;;;;;;;1.90;1.50;;;;;;;;;;8310403;28;20501;-57
